createdAt,value
2018-10-18T00:00:10.707Z,43.3
2018-10-18T00:01:11.836Z,43.4
2018-10-18T00:02:19.085Z,43.4
2018-10-18T00:03:20.193Z,43.4
2018-10-18T00:04:19.011Z,43.4
2018-10-18T00:05:17.049Z,43.3
2018-10-18T00:06:15.950Z,43.3
2018-10-18T00:07:19.642Z,43.4
2018-10-18T00:08:19.975Z,43.4
2018-10-18T00:09:22.544Z,43.3
2018-10-18T00:10:23.578Z,43.3
2018-10-18T00:11:28.163Z,43.3
2018-10-18T00:12:34.350Z,43.4
2018-10-18T00:13:39.775Z,43.4
2018-10-18T00:14:44.194Z,43.3
2018-10-18T00:15:48.659Z,43.4
2018-10-18T00:16:46.753Z,43.3
2018-10-18T00:17:47.675Z,43.4
2018-10-18T00:18:46.182Z,43.4
2018-10-18T00:19:47.482Z,43.4
2018-10-18T00:20:51.372Z,43.4
2018-10-18T00:21:52.410Z,43.4
2018-10-18T00:22:57.505Z,43.4
2018-10-18T00:23:56.101Z,43.4
2018-10-18T00:24:56.932Z,43.5
2018-10-18T00:25:55.825Z,43.4
2018-10-18T00:26:59.864Z,43.5
2018-10-18T00:28:00.444Z,43.4
2018-10-18T00:28:59.957Z,43.4
2018-10-18T00:29:58.756Z,43.4
2018-10-18T00:30:58.062Z,43.4
2018-10-18T00:31:56.550Z,43.5
2018-10-18T00:32:55.267Z,43.5
2018-10-18T00:33:53.462Z,43.5
2018-10-18T00:34:52.002Z,43.5
2018-10-18T00:35:54.347Z,43.5
2018-10-18T00:36:54.157Z,43.5
2018-10-18T00:37:55.365Z,43.5
2018-10-18T00:38:54.375Z,43.5
2018-10-18T00:39:54.187Z,43.5
2018-10-18T00:40:53.997Z,43.5
2018-10-18T00:41:53.363Z,43.5
2018-10-18T00:42:55.915Z,43.6
2018-10-18T00:43:54.889Z,43.6
2018-10-18T00:44:53.603Z,43.6
2018-10-18T00:45:51.906Z,43.5
2018-10-18T00:46:49.946Z,43.5
2018-10-18T00:47:53.436Z,43.5
2018-10-18T00:48:52.418Z,43.4
2018-10-18T00:49:52.205Z,43.5
2018-10-18T00:50:54.068Z,43.5
2018-10-18T00:52:02.228Z,43.6
2018-10-18T00:53:04.788Z,43.6
2018-10-18T00:54:02.822Z,43.5
2018-10-18T00:55:01.764Z,43.5
2018-10-18T00:56:01.921Z,43.6
2018-10-18T00:57:00.475Z,43.5
2018-10-18T00:58:01.662Z,43.5
2018-10-18T00:59:01.306Z,43.6
2018-10-18T01:00:07.957Z,43.5
2018-10-18T01:01:11.620Z,43.5
2018-10-18T01:02:11.142Z,43.5
2018-10-18T01:03:10.960Z,43.5
2018-10-18T01:04:11.245Z,43.6
2018-10-18T01:05:09.924Z,43.6
2018-10-18T01:06:13.915Z,43.6
2018-10-18T01:07:08.964Z,43.6
2018-10-18T01:08:18.385Z,43.6
2018-10-18T01:09:18.064Z,43.6
2018-10-18T01:10:16.140Z,43.7
2018-10-18T01:11:14.638Z,43.6
2018-10-18T01:12:14.521Z,43.6
2018-10-18T01:13:15.418Z,43.6
2018-10-18T01:14:19.386Z,43.7
2018-10-18T01:15:23.007Z,43.7
2018-10-18T01:16:23.590Z,43.7
2018-10-18T01:17:21.812Z,43.6
2018-10-18T01:18:20.975Z,43.7
2018-10-18T01:19:19.323Z,43.6
2018-10-18T01:20:18.547Z,43.6
2018-10-18T01:21:17.953Z,43.7
2018-10-18T01:22:15.863Z,43.7
2018-10-18T01:23:13.641Z,43.7
2018-10-18T01:24:12.264Z,43.7
2018-10-18T01:25:12.670Z,43.7
2018-10-18T01:26:12.796Z,43.8
2018-10-18T01:27:11.782Z,43.8
2018-10-18T01:28:14.442Z,43.8
2018-10-18T01:29:14.009Z,43.8
2018-10-18T01:30:13.853Z,43.7
2018-10-18T01:31:12.976Z,43.8
2018-10-18T01:32:13.543Z,43.8
2018-10-18T01:33:14.242Z,43.8
2018-10-18T01:34:15.429Z,43.8
2018-10-18T01:35:13.534Z,43.7
2018-10-18T01:36:15.364Z,43.8
2018-10-18T01:37:14.088Z,43.8
2018-10-18T01:38:15.485Z,43.8
2018-10-18T01:39:17.410Z,43.8
2018-10-18T01:40:17.244Z,43.9
2018-10-18T01:41:20.545Z,43.8
2018-10-18T01:42:18.644Z,43.8
2018-10-18T01:43:19.281Z,43.9
2018-10-18T01:44:18.097Z,43.9
2018-10-18T01:45:16.959Z,43.9
2018-10-18T01:46:15.197Z,43.8
2018-10-18T01:47:14.446Z,43.9
2018-10-18T01:48:18.547Z,43.9
2018-10-18T01:49:20.530Z,43.8
2018-10-18T01:50:19.800Z,43.7
2018-10-18T01:51:18.377Z,43.8
2018-10-18T01:52:18.401Z,43.9
2018-10-18T01:53:17.356Z,43.9
2018-10-18T01:54:23.398Z,43.8
2018-10-18T01:55:24.421Z,43.9
2018-10-18T01:56:22.160Z,43.9
2018-10-18T01:57:20.855Z,43.8
2018-10-18T01:58:26.579Z,43.9
2018-10-18T01:59:31.129Z,43.9
2018-10-18T02:00:28.774Z,43.8
2018-10-18T02:01:28.980Z,43.9
2018-10-18T02:02:27.545Z,43.9
2018-10-18T02:03:25.524Z,43.9
2018-10-18T02:04:30.791Z,43.9
2018-10-18T02:05:31.906Z,43.8
2018-10-18T02:06:31.753Z,43.9
2018-10-18T02:07:32.638Z,44
2018-10-18T02:08:30.830Z,44
2018-10-18T02:09:31.996Z,44
2018-10-18T02:10:33.057Z,44
2018-10-18T02:11:29.552Z,44
2018-10-18T02:12:31.729Z,44
2018-10-18T02:13:31.804Z,44
2018-10-18T02:14:30.689Z,44
2018-10-18T02:15:31.438Z,44
2018-10-18T02:16:30.549Z,44
2018-10-18T02:17:32.272Z,44
2018-10-18T02:18:33.291Z,44
2018-10-18T02:19:35.402Z,44
2018-10-18T02:20:34.119Z,43.9
2018-10-18T02:20:53.502Z,44
2018-10-18T02:21:55.790Z,44
2018-10-18T02:22:57.001Z,44.1
2018-10-18T02:23:56.891Z,44
2018-10-18T02:24:55.774Z,44.1
2018-10-18T02:25:54.908Z,44.1
2018-10-18T02:26:53.853Z,44.1
2018-10-18T02:27:53.640Z,44.1
2018-10-18T02:28:54.321Z,44
2018-10-18T02:29:54.426Z,44.1
2018-10-18T02:30:56.189Z,44.1
2018-10-18T02:31:54.829Z,44.1
2018-10-18T02:32:54.234Z,44.1
2018-10-18T02:33:53.101Z,44.1
2018-10-18T02:34:55.781Z,44.1
2018-10-18T02:35:57.845Z,44.1
2018-10-18T02:36:55.619Z,44.1
2018-10-18T02:37:54.232Z,44.1
2018-10-18T02:38:52.379Z,44.1
2018-10-18T02:39:50.766Z,44.1
2018-10-18T02:40:49.916Z,44.1
2018-10-18T02:41:52.662Z,44.1
2018-10-18T02:42:50.516Z,44.1
2018-10-18T02:43:50.238Z,44.1
2018-10-18T02:44:53.490Z,44.1
2018-10-18T02:45:56.660Z,44.1
2018-10-18T02:46:57.953Z,44.1
2018-10-18T02:48:06.601Z,44.1
2018-10-18T02:49:07.458Z,44.1
2018-10-18T02:50:05.924Z,44.1
2018-10-18T02:51:05.431Z,44.1
2018-10-18T02:52:04.696Z,44.1
2018-10-18T02:53:02.504Z,44.1
2018-10-18T02:54:00.604Z,44.1
2018-10-18T02:55:04.986Z,44.1
2018-10-18T02:56:02.677Z,44.1
2018-10-18T02:57:01.464Z,44.1
2018-10-18T02:58:04.040Z,44.1
2018-10-18T02:59:02.029Z,44.1
2018-10-18T03:00:08.313Z,44.1
2018-10-18T03:01:05.935Z,44.1
2018-10-18T03:02:08.077Z,44.1
2018-10-18T03:03:05.929Z,44.1
2018-10-18T03:04:12.556Z,44.1
2018-10-18T03:05:10.644Z,44.1
2018-10-18T03:06:12.849Z,44.2
2018-10-18T03:07:11.288Z,44.1
2018-10-18T03:08:14.480Z,44.2
2018-10-18T03:09:13.467Z,44.2
2018-10-18T03:10:12.532Z,44.2
2018-10-18T03:11:11.360Z,44.1
2018-10-18T03:12:09.088Z,44.2
2018-10-18T03:13:11.907Z,44.1
2018-10-18T03:14:09.796Z,44.2
2018-10-18T03:15:10.696Z,44.2
2018-10-18T03:16:10.823Z,44.2
2018-10-18T03:17:15.281Z,44.2
2018-10-18T03:18:15.233Z,44.2
2018-10-18T03:19:17.104Z,44.2
2018-10-18T03:20:17.205Z,44.2
2018-10-18T03:21:16.769Z,44.2
2018-10-18T03:22:17.278Z,44.2
2018-10-18T03:23:25.028Z,44.2
2018-10-18T03:24:29.162Z,44.2
2018-10-18T03:25:27.958Z,44.2
2018-10-18T03:26:30.629Z,44.2
2018-10-18T03:27:29.833Z,44.2
2018-10-18T03:28:31.673Z,44.2
2018-10-18T03:29:30.321Z,44.2
2018-10-18T03:30:30.861Z,44.2
2018-10-18T03:31:29.974Z,44.2
2018-10-18T03:32:28.509Z,44.2
2018-10-18T03:33:31.140Z,44.2
2018-10-18T03:34:31.083Z,44.2
2018-10-18T03:35:28.750Z,44.2
2018-10-18T03:36:30.408Z,44.2
2018-10-18T03:37:29.954Z,44.2
2018-10-18T03:38:30.898Z,44.2
2018-10-18T03:39:41.004Z,44.2
2018-10-18T03:40:40.333Z,44.2
2018-10-18T03:41:39.002Z,44.2
2018-10-18T03:42:38.511Z,44.2
2018-10-18T03:43:38.776Z,44.2
2018-10-18T03:44:38.047Z,44.2
2018-10-18T03:45:39.912Z,44.2
2018-10-18T03:46:41.083Z,44.3
2018-10-18T03:47:38.829Z,44.3
2018-10-18T03:48:47.034Z,44.3
2018-10-18T03:49:46.356Z,44.3
2018-10-18T03:50:47.349Z,44.3
2018-10-18T03:51:51.173Z,44.3
2018-10-18T03:52:49.246Z,44.3
2018-10-18T03:53:50.401Z,44.3
2018-10-18T03:54:49.610Z,44.3
2018-10-18T03:55:50.584Z,44.3
2018-10-18T03:56:52.529Z,44.3
2018-10-18T03:57:52.065Z,44.2
2018-10-18T03:58:50.201Z,44.3
2018-10-18T03:59:48.106Z,44.4
2018-10-18T04:00:46.169Z,44.4
2018-10-18T04:01:43.964Z,44.3
2018-10-18T04:02:41.895Z,44.3
2018-10-18T04:03:52.889Z,44.2
2018-10-18T04:04:52.019Z,44.2
2018-10-18T04:05:52.796Z,44.3
2018-10-18T04:06:51.798Z,44.2
2018-10-18T04:07:59.316Z,44.4
2018-10-18T04:08:57.367Z,44.4
2018-10-18T04:10:12.024Z,44.4
2018-10-18T04:11:11.723Z,44.4
2018-10-18T04:12:13.058Z,44.4
2018-10-18T04:13:11.227Z,44.4
2018-10-18T04:14:10.018Z,44.4
2018-10-18T04:15:07.865Z,44.4
2018-10-18T04:16:08.515Z,44.3
2018-10-18T04:17:07.791Z,44.3
2018-10-18T04:18:06.490Z,44.2
2018-10-18T04:19:05.608Z,44.3
2018-10-18T04:20:05.314Z,44.4
2018-10-18T04:21:05.610Z,44.3
2018-10-18T04:22:05.424Z,44.4
2018-10-18T04:23:03.111Z,44.3
2018-10-18T04:24:00.768Z,44.3
2018-10-18T04:25:01.783Z,44.3
2018-10-18T04:26:02.322Z,44.3
2018-10-18T04:27:01.109Z,44.3
2018-10-18T04:28:09.163Z,44.3
2018-10-18T04:29:14.156Z,44.3
2018-10-18T04:30:11.471Z,44.3
2018-10-18T04:31:22.196Z,44.3
2018-10-18T04:32:23.641Z,44.4
2018-10-18T04:33:23.092Z,44.4
2018-10-18T04:34:21.572Z,44.3
2018-10-18T04:35:19.629Z,44.3
2018-10-18T04:36:18.649Z,44.4
2018-10-18T04:37:22.077Z,44.4
2018-10-18T04:38:20.563Z,44.4
2018-10-18T04:39:15.847Z,44.4
2018-10-18T04:40:16.618Z,44.4
2018-10-18T04:41:19.042Z,44.4
2018-10-18T04:42:20.180Z,44.4
2018-10-18T04:43:19.295Z,44.4
2018-10-18T04:44:23.157Z,44.4
2018-10-18T04:45:24.392Z,44.4
2018-10-18T04:46:24.547Z,44.4
2018-10-18T04:47:24.713Z,44.4
2018-10-18T04:48:22.788Z,44.4
2018-10-18T04:49:23.762Z,44.4
2018-10-18T04:50:26.455Z,44.4
2018-10-18T04:51:27.741Z,44.5
2018-10-18T04:52:29.126Z,44.5
2018-10-18T04:53:27.531Z,44.5
2018-10-18T04:54:25.219Z,44.5
2018-10-18T04:55:26.991Z,44.5
2018-10-18T04:56:25.293Z,44.5
2018-10-18T04:57:23.459Z,44.5
2018-10-18T04:58:21.459Z,44.5
2018-10-18T04:59:20.908Z,44.5
2018-10-18T05:00:19.171Z,44.5
2018-10-18T05:01:30.621Z,44.5
2018-10-18T05:02:29.564Z,44.5
2018-10-18T05:03:32.733Z,44.5
2018-10-18T05:04:30.688Z,44.5
2018-10-18T05:05:35.327Z,44.5
2018-10-18T05:06:37.655Z,44.5
2018-10-18T05:07:36.385Z,44.5
2018-10-18T05:08:37.153Z,44.5
2018-10-18T05:09:35.007Z,44.5
2018-10-18T05:10:36.972Z,44.5
2018-10-18T05:11:36.836Z,44.5
2018-10-18T05:12:37.950Z,44.5
2018-10-18T05:13:36.995Z,44.5
2018-10-18T05:14:34.984Z,44.5
2018-10-18T05:15:38.466Z,44.5
2018-10-18T05:16:40.831Z,44.5
2018-10-18T05:17:42.162Z,44.5
2018-10-18T05:18:42.422Z,44.5
2018-10-18T05:19:40.445Z,44.5
2018-10-18T05:20:46.199Z,44.5
2018-10-18T05:21:45.309Z,44.6
2018-10-18T05:22:44.814Z,44.5
2018-10-18T05:23:44.220Z,44.5
2018-10-18T05:24:43.995Z,44.5
2018-10-18T05:25:42.224Z,44.6
2018-10-18T05:26:42.205Z,44.6
2018-10-18T05:27:44.015Z,44.6
2018-10-18T05:28:42.668Z,44.8
2018-10-18T05:29:46.057Z,45.1
2018-10-18T05:30:43.970Z,45.4
2018-10-18T05:31:43.117Z,45.4
2018-10-18T05:32:42.384Z,45.4
2018-10-18T05:33:42.517Z,45.2
2018-10-18T05:34:40.568Z,45.2
2018-10-18T05:35:47.245Z,45.1
2018-10-18T05:36:45.149Z,45.1
2018-10-18T05:37:48.511Z,45.1
2018-10-18T05:38:48.939Z,45.1
2018-10-18T05:39:56.096Z,45.1
2018-10-18T05:40:54.564Z,45.1
2018-10-18T05:41:54.457Z,45.2
2018-10-18T05:42:54.685Z,45.2
2018-10-18T05:43:58.819Z,45.2
2018-10-18T05:44:57.242Z,45.3
2018-10-18T05:45:56.270Z,45.3
2018-10-18T05:46:56.195Z,45.3
2018-10-18T05:47:54.281Z,45.4
2018-10-18T05:48:53.415Z,45.4
2018-10-18T05:49:51.921Z,45.4
2018-10-18T05:50:49.512Z,45.3
2018-10-18T05:51:47.205Z,45.4
2018-10-18T05:52:44.822Z,45.6
2018-10-18T05:53:44.985Z,45.7
2018-10-18T05:54:42.594Z,45.7
2018-10-18T05:55:40.124Z,45.6
2018-10-18T05:56:41.055Z,45.7
2018-10-18T05:57:42.001Z,45.6
2018-10-18T05:58:44.296Z,45.4
2018-10-18T05:59:41.808Z,45.4
2018-10-18T06:00:40.148Z,45.4
2018-10-18T06:01:41.023Z,45.4
2018-10-18T06:02:39.283Z,45.4
2018-10-18T06:03:39.461Z,45.4
2018-10-18T06:04:36.983Z,45.4
2018-10-18T06:05:38.959Z,45.4
2018-10-18T06:06:44.114Z,45.5
2018-10-18T06:07:42.144Z,45.5
2018-10-18T06:08:45.939Z,45.5
2018-10-18T06:09:43.421Z,45.5
2018-10-18T06:10:41.338Z,45.6
2018-10-18T06:11:39.950Z,45.6
2018-10-18T06:12:38.184Z,45.7
2018-10-18T06:13:39.533Z,45.7
2018-10-18T06:14:36.816Z,45.7
2018-10-18T06:15:35.842Z,45.7
2018-10-18T06:16:38.743Z,45.6
2018-10-18T06:17:40.555Z,45.7
2018-10-18T06:18:42.633Z,45.7
2018-10-18T06:19:43.238Z,45.7
2018-10-18T06:20:43.494Z,45.7
2018-10-18T06:21:47.545Z,45.8
2018-10-18T06:22:45.228Z,45.7
2018-10-18T06:23:47.383Z,45.8
2018-10-18T06:24:51.832Z,45.8
2018-10-18T06:25:50.814Z,45.7
2018-10-18T06:26:48.692Z,45.8
2018-10-18T06:27:47.136Z,45.8
2018-10-18T06:28:45.553Z,45.7
2018-10-18T06:29:43.061Z,45.9
2018-10-18T06:30:48.824Z,45.8
2018-10-18T06:31:49.799Z,45.8
2018-10-18T06:32:47.850Z,45.7
2018-10-18T06:33:46.286Z,45.8
2018-10-18T06:34:44.807Z,45.8
2018-10-18T06:35:46.863Z,45.6
2018-10-18T06:36:44.452Z,45.8
2018-10-18T06:37:43.802Z,45.8
2018-10-18T06:38:43.316Z,45.8
2018-10-18T06:39:42.953Z,45.8
2018-10-18T06:40:43.459Z,45.8
2018-10-18T06:41:41.629Z,45.8
2018-10-18T06:42:44.528Z,45.8
2018-10-18T06:43:42.671Z,45.8
2018-10-18T06:44:40.254Z,45.8
2018-10-18T06:45:37.796Z,45.8
2018-10-18T06:46:39.240Z,45.8
2018-10-18T06:47:36.962Z,45.8
2018-10-18T06:48:34.689Z,45.8
2018-10-18T06:49:36.843Z,45.8
2018-10-18T06:50:41.616Z,45.7
2018-10-18T06:51:47.471Z,45.9
2018-10-18T06:52:44.939Z,45.8
2018-10-18T06:53:49.961Z,45.8
2018-10-18T06:54:50.116Z,45.8
2018-10-18T06:55:47.588Z,45.8
2018-10-18T06:56:46.460Z,45.8
2018-10-18T06:57:48.983Z,45.8
2018-10-18T06:58:46.801Z,45.8
2018-10-18T06:59:46.229Z,45.8
2018-10-18T07:00:51.483Z,45.8
2018-10-18T07:01:54.974Z,45.8
2018-10-18T07:02:53.021Z,45.8
2018-10-18T07:03:51.987Z,45.8
2018-10-18T07:04:51.400Z,45.8
2018-10-18T07:05:54.653Z,45.7
2018-10-18T07:06:52.829Z,45.8
2018-10-18T07:07:52.551Z,45.8
2018-10-18T07:08:55.372Z,45.8
2018-10-18T07:09:53.302Z,45.8
2018-10-18T07:10:51.072Z,45.8
2018-10-18T07:11:52.511Z,45.8
2018-10-18T07:12:51.161Z,45.8
2018-10-18T07:13:52.816Z,45.8
2018-10-18T07:14:51.094Z,45.8
2018-10-18T07:15:48.936Z,45.7
2018-10-18T07:16:47.131Z,45.7
2018-10-18T07:17:44.860Z,45.7
2018-10-18T07:18:56.270Z,45.7
2018-10-18T07:19:53.965Z,45.7
2018-10-18T07:20:58.182Z,45.7
2018-10-18T07:21:59.134Z,45.8
2018-10-18T07:22:57.013Z,45.8
2018-10-18T07:23:57.621Z,45.7
2018-10-18T07:24:55.552Z,45.7
2018-10-18T07:25:56.116Z,45.7
2018-10-18T07:26:55.118Z,45.7
2018-10-18T07:27:53.296Z,45.7
2018-10-18T07:28:53.000Z,45.7
2018-10-18T07:29:54.239Z,45.7
2018-10-18T07:30:56.232Z,45.7
2018-10-18T07:31:54.109Z,45.7
2018-10-18T07:32:52.186Z,45.7
2018-10-18T07:33:52.075Z,45.7
2018-10-18T07:34:53.694Z,45.7
2018-10-18T07:35:57.978Z,45.7
2018-10-18T07:36:55.965Z,45.7
2018-10-18T07:38:02.199Z,45.8
2018-10-18T07:39:00.011Z,45.9
2018-10-18T07:39:57.706Z,45.8
2018-10-18T07:40:59.519Z,45.7
2018-10-18T07:41:59.884Z,46.8
2018-10-18T07:42:59.511Z,47
2018-10-18T07:43:57.590Z,47.2
2018-10-18T07:44:55.021Z,47.6
2018-10-18T07:45:53.146Z,48.2
2018-10-18T07:46:50.767Z,48.4
2018-10-18T07:47:55.805Z,48.4
2018-10-18T07:48:53.924Z,48.4
2018-10-18T07:49:54.178Z,48.5
2018-10-18T07:50:53.345Z,49.8
2018-10-18T07:51:51.373Z,49.7
2018-10-18T07:52:50.422Z,50
2018-10-18T07:53:51.946Z,50.3
2018-10-18T07:54:50.222Z,50.7
2018-10-18T07:55:47.513Z,51.1
2018-10-18T07:56:50.127Z,51.5
2018-10-18T07:57:48.538Z,52.1
2018-10-18T07:58:46.577Z,52.2
2018-10-18T07:59:44.608Z,52.6
2018-10-18T08:00:47.630Z,52.5
2018-10-18T08:01:45.019Z,52.9
2018-10-18T08:02:43.650Z,53
2018-10-18T08:03:40.632Z,53.3
2018-10-18T08:04:38.943Z,53.4
2018-10-18T08:05:38.046Z,53.7
2018-10-18T08:06:38.984Z,53.7
2018-10-18T08:07:38.025Z,53.9
2018-10-18T08:08:37.698Z,54.2
2018-10-18T08:09:40.094Z,54.3
2018-10-18T08:10:51.518Z,54.4
2018-10-18T08:11:48.942Z,54.5
2018-10-18T08:12:49.986Z,54.7
2018-10-18T08:13:47.843Z,54.8
2018-10-18T08:14:46.238Z,54.8
2018-10-18T08:15:51.570Z,55
2018-10-18T08:16:50.608Z,55.1
2018-10-18T08:17:49.768Z,55.2
2018-10-18T08:18:46.903Z,55.4
2018-10-18T08:19:46.375Z,55.7
2018-10-18T08:20:47.311Z,55.9
2018-10-18T08:21:45.342Z,56.1
2018-10-18T08:22:42.626Z,56.1
2018-10-18T08:23:41.887Z,56.1
2018-10-18T08:24:44.815Z,56.4
2018-10-18T08:25:41.861Z,56.3
2018-10-18T08:26:43.606Z,56.4
2018-10-18T08:27:46.882Z,56.5
2018-10-18T08:28:46.389Z,56.4
2018-10-18T08:29:44.055Z,56.6
2018-10-18T08:30:41.507Z,56.7
2018-10-18T08:31:38.704Z,56.9
2018-10-18T08:32:35.504Z,57
2018-10-18T08:33:33.903Z,57.2
2018-10-18T08:34:38.536Z,57.2
2018-10-18T08:35:37.934Z,57.2
2018-10-18T08:36:35.474Z,57.4
2018-10-18T08:37:35.315Z,57.5
2018-10-18T08:38:40.109Z,57.5
2018-10-18T08:39:39.030Z,57.4
2018-10-18T08:40:38.400Z,57.6
2018-10-18T08:41:34.644Z,57.6
2018-10-18T08:42:35.727Z,57.7
2018-10-18T08:43:32.628Z,57.7
2018-10-18T08:44:32.629Z,57.6
2018-10-18T08:45:30.442Z,57.9
2018-10-18T08:46:27.155Z,58.1
2018-10-18T08:47:24.169Z,57.9
2018-10-18T08:48:22.691Z,58.1
2018-10-18T08:49:20.601Z,58.3
2018-10-18T08:50:16.871Z,58.3
2018-10-18T08:51:21.085Z,58.3
2018-10-18T08:52:19.613Z,58.2
2018-10-18T08:53:18.407Z,58.2
2018-10-18T08:54:14.868Z,58.2
2018-10-18T08:55:14.507Z,58.2
2018-10-18T08:56:12.692Z,58.3
2018-10-18T08:57:09.866Z,58.4
2018-10-18T08:58:06.849Z,58.5
2018-10-18T08:59:04.498Z,58.4
2018-10-18T09:00:03.747Z,58.4
2018-10-18T09:01:00.533Z,58.5
2018-10-18T09:01:57.314Z,58.7
2018-10-18T09:02:10.020Z,58.6
2018-10-18T09:03:08.365Z,58.7
2018-10-18T09:04:07.886Z,58.8
2018-10-18T09:05:06.575Z,58.4
2018-10-18T09:06:04.200Z,58.8
2018-10-18T09:07:17.443Z,59
2018-10-18T09:08:13.953Z,58.9
2018-10-18T09:09:11.121Z,58.7
2018-10-18T09:10:10.580Z,58.8
2018-10-18T09:11:10.097Z,59
2018-10-18T09:12:08.123Z,59
2018-10-18T09:13:11.506Z,59.1
2018-10-18T09:14:10.843Z,59.2
2018-10-18T09:15:07.450Z,59.5
2018-10-18T09:16:07.457Z,59.6
2018-10-18T09:17:10.460Z,59.4
2018-10-18T09:18:08.108Z,59.5
2018-10-18T09:19:05.633Z,59.2
2018-10-18T09:20:03.801Z,59.2
2018-10-18T09:21:00.645Z,59.2
2018-10-18T09:21:58.907Z,59.3
2018-10-18T09:22:58.168Z,59.3
2018-10-18T09:23:57.469Z,59.2
2018-10-18T09:24:57.882Z,59.3
2018-10-18T09:25:56.186Z,58.8
2018-10-18T09:26:55.047Z,59
2018-10-18T09:27:51.676Z,58.8
2018-10-18T09:28:52.166Z,58.8
2018-10-18T09:29:49.017Z,59.1
2018-10-18T09:30:54.085Z,59.4
2018-10-18T09:31:51.967Z,59.2
2018-10-18T09:32:51.875Z,58.7
2018-10-18T09:33:49.683Z,58.7
2018-10-18T09:34:45.803Z,58.7
2018-10-18T09:35:42.356Z,58.9
2018-10-18T09:36:44.658Z,58.5
2018-10-18T09:37:46.145Z,57.5
2018-10-18T09:38:42.178Z,57.7
2018-10-18T09:39:41.414Z,57.8
2018-10-18T09:40:38.747Z,57.8
2018-10-18T09:41:36.477Z,57.8
2018-10-18T09:42:38.121Z,57.6
2018-10-18T09:43:35.838Z,57.5
2018-10-18T09:44:36.265Z,57.3
2018-10-18T09:45:33.777Z,57.2
2018-10-18T09:46:30.144Z,57.1
2018-10-18T09:47:27.166Z,56.9
2018-10-18T09:48:23.412Z,56.7
2018-10-18T09:49:20.193Z,56.5
2018-10-18T09:50:26.140Z,56.3
2018-10-18T09:51:23.554Z,55.8
2018-10-18T09:52:20.123Z,55.8
2018-10-18T09:53:19.935Z,55.7
2018-10-18T09:54:17.832Z,55.4
2018-10-18T09:55:18.687Z,55.2
2018-10-18T09:56:16.172Z,55
2018-10-18T09:57:15.927Z,54.8
2018-10-18T09:58:12.703Z,54.5
2018-10-18T09:59:10.257Z,54.3
2018-10-18T10:00:08.753Z,54.1
2018-10-18T10:01:07.633Z,53.9
2018-10-18T10:02:06.501Z,53.7
2018-10-18T10:03:03.391Z,53.5
2018-10-18T10:04:10.276Z,53.3
2018-10-18T10:05:08.961Z,53.2
2018-10-18T10:06:07.835Z,52.8
2018-10-18T10:07:06.519Z,52.8
2018-10-18T10:08:10.802Z,52.7
2018-10-18T10:09:09.469Z,52.4
2018-10-18T10:10:07.242Z,52.2
2018-10-18T10:11:04.934Z,52.2
2018-10-18T10:12:01.760Z,52.1
2018-10-18T10:12:58.627Z,51.8
2018-10-18T10:14:02.125Z,51.7
2018-10-18T10:15:02.434Z,51.5
2018-10-18T10:15:59.276Z,51.4
2018-10-18T10:16:56.786Z,51.2
2018-10-18T10:17:56.678Z,51.1
2018-10-18T10:19:04.691Z,50.9
2018-10-18T10:20:02.303Z,50.8
2018-10-18T10:21:03.921Z,50.8
2018-10-18T10:22:01.128Z,50.5
2018-10-18T10:23:01.217Z,50.4
2018-10-18T10:23:58.104Z,50.3
2018-10-18T10:24:54.990Z,50.1
2018-10-18T10:26:00.002Z,50
2018-10-18T10:26:57.405Z,49.9
2018-10-18T10:27:56.117Z,49.7
2018-10-18T10:28:57.899Z,49.5
2018-10-18T10:29:59.966Z,49.2
2018-10-18T10:30:59.126Z,49.2
2018-10-18T10:32:03.124Z,49.2
2018-10-18T10:33:03.943Z,49.2
2018-10-18T10:34:02.250Z,49.2
2018-10-18T10:35:00.522Z,49.2
2018-10-18T10:36:00.365Z,49.5
2018-10-18T10:37:08.134Z,49.2
2018-10-18T10:38:09.141Z,49.1
2018-10-18T10:39:06.789Z,49.1
2018-10-18T10:40:03.815Z,49.1
2018-10-18T10:41:06.645Z,49
2018-10-18T10:42:10.714Z,49.1
2018-10-18T10:43:11.509Z,49.1
2018-10-18T10:44:10.727Z,49.1
2018-10-18T10:45:17.566Z,49
2018-10-18T10:46:16.783Z,49.1
2018-10-18T10:47:21.590Z,49
2018-10-18T10:48:26.525Z,49
2018-10-18T10:49:24.894Z,49
2018-10-18T10:50:23.334Z,48.7
2018-10-18T10:51:22.707Z,48.6
2018-10-18T10:52:20.694Z,48.5
2018-10-18T10:53:24.130Z,48.4
2018-10-18T10:54:30.155Z,48.4
2018-10-18T10:55:29.960Z,48.3
2018-10-18T10:56:32.515Z,48.2
2018-10-18T10:57:30.609Z,46.4
2018-10-18T10:58:31.054Z,46
2018-10-18T10:59:29.068Z,46.2
2018-10-18T11:00:26.650Z,46.1
2018-10-18T11:01:25.638Z,46.1
2018-10-18T11:02:22.862Z,46.3
2018-10-18T11:03:20.320Z,46.4
2018-10-18T11:04:17.768Z,47
2018-10-18T11:05:15.884Z,47.3
2018-10-18T11:06:15.000Z,47.7
2018-10-18T11:07:12.484Z,47.9
2018-10-18T11:08:11.446Z,47.9
2018-10-18T11:09:08.928Z,47.9
2018-10-18T11:10:11.256Z,48
2018-10-18T11:11:10.343Z,48.5
2018-10-18T11:12:09.686Z,49.1
2018-10-18T11:13:06.715Z,49.4
2018-10-18T11:14:04.693Z,49.4
2018-10-18T11:15:04.639Z,49.3
2018-10-18T11:16:03.208Z,49.3
2018-10-18T11:17:08.511Z,49.4
2018-10-18T11:18:07.452Z,49.4
2018-10-18T11:19:05.706Z,49.5
2018-10-18T11:20:04.979Z,49.4
2018-10-18T11:21:02.888Z,49.4
2018-10-18T11:22:03.070Z,49.6
2018-10-18T11:22:57.895Z,49.6
2018-10-18T11:23:55.439Z,49.6
2018-10-18T11:24:57.688Z,49.5
2018-10-18T11:25:57.000Z,49.5
2018-10-18T11:26:54.620Z,49.6
2018-10-18T11:27:51.593Z,49.7
2018-10-18T11:28:50.878Z,49.6
2018-10-18T11:29:52.495Z,49.7
2018-10-18T11:30:50.136Z,49.7
2018-10-18T11:31:47.082Z,49.7
2018-10-18T11:32:44.112Z,49.7
2018-10-18T11:33:41.465Z,49.7
2018-10-18T11:34:39.207Z,49.8
2018-10-18T11:35:37.329Z,49.9
2018-10-18T11:36:42.974Z,49.9
2018-10-18T11:37:44.495Z,50
2018-10-18T11:38:41.896Z,49.9
2018-10-18T11:39:41.384Z,49.8
2018-10-18T11:40:46.630Z,49.8
2018-10-18T11:41:49.809Z,50.5
2018-10-18T11:42:47.219Z,50.7
2018-10-18T11:43:45.124Z,50.8
2018-10-18T11:44:41.777Z,50.9
2018-10-18T11:45:41.029Z,51
2018-10-18T11:46:45.823Z,51
2018-10-18T11:47:44.247Z,51.2
2018-10-18T11:48:42.023Z,51.3
2018-10-18T11:49:40.613Z,51.2
2018-10-18T11:50:37.746Z,51.2
2018-10-18T11:51:38.330Z,51.4
2018-10-18T11:52:35.634Z,51.2
2018-10-18T11:53:36.269Z,51.2
2018-10-18T11:54:36.018Z,51.1
2018-10-18T11:55:35.779Z,51.1
2018-10-18T11:56:34.741Z,50.9
2018-10-18T11:57:36.153Z,50.9
2018-10-18T11:58:35.935Z,50.8
2018-10-18T11:59:33.504Z,50.8
2018-10-18T12:00:36.462Z,50.7
2018-10-18T12:01:33.378Z,50.6
2018-10-18T12:02:30.506Z,50.6
2018-10-18T12:03:27.798Z,50.5
2018-10-18T12:04:26.004Z,50.5
2018-10-18T12:05:39.851Z,50.3
2018-10-18T12:08:29.907Z,50.3
2018-10-18T12:11:14.276Z,49.4
2018-10-18T12:13:56.301Z,49.3
2018-10-18T12:16:37.272Z,49.3
2018-10-18T12:19:18.073Z,48.9
2018-10-18T12:22:13.420Z,48.5
2018-10-18T12:24:55.176Z,48.3
2018-10-18T12:27:35.649Z,48
2018-10-18T12:30:17.740Z,47.8
2018-10-18T12:31:13.709Z,47.7
2018-10-18T12:32:14.726Z,47.6
2018-10-18T12:33:14.797Z,47.5
2018-10-18T12:34:14.682Z,47.5
2018-10-18T12:35:41.872Z,47.4
2018-10-18T12:38:32.338Z,47.3
2018-10-18T12:41:15.180Z,47.1
2018-10-18T12:44:03.993Z,47
2018-10-18T12:46:49.652Z,46.8
2018-10-18T12:49:31.012Z,46.8
2018-10-18T12:52:13.944Z,46.7
2018-10-18T12:54:58.675Z,46.5
2018-10-18T12:55:53.764Z,46.4
2018-10-18T12:56:51.940Z,46.4
2018-10-18T12:57:51.973Z,46.3
2018-10-18T12:58:50.449Z,46.3
2018-10-18T12:59:49.461Z,46.3
2018-10-18T13:00:57.853Z,46.3
2018-10-18T13:01:58.061Z,46.2
2018-10-18T13:03:00.884Z,46.2
2018-10-18T13:03:57.452Z,46.2
2018-10-18T13:04:56.281Z,46.1
2018-10-18T13:05:55.968Z,46
2018-10-18T13:07:05.813Z,46.1
2018-10-18T13:08:04.448Z,46
2018-10-18T13:09:05.778Z,46
2018-10-18T13:10:04.579Z,46
2018-10-18T13:11:13.266Z,46
2018-10-18T13:12:11.708Z,45.9
2018-10-18T13:13:10.991Z,46
2018-10-18T13:14:09.507Z,46
2018-10-18T13:15:11.855Z,46
2018-10-18T13:16:23.745Z,45.9
2018-10-18T13:17:24.279Z,45.9
2018-10-18T13:18:27.334Z,45.9
2018-10-18T13:19:27.168Z,45.9
2018-10-18T13:20:26.601Z,45.9
2018-10-18T13:21:24.436Z,45.9
2018-10-18T13:22:26.002Z,45.8
2018-10-18T13:23:28.326Z,45.8
2018-10-18T13:24:30.516Z,45.8
2018-10-18T13:25:31.689Z,45.8
2018-10-18T13:26:33.843Z,45.8
2018-10-18T13:27:35.833Z,45.8
2018-10-18T13:28:35.367Z,45.7
2018-10-18T13:29:35.540Z,45.7
2018-10-18T13:30:36.360Z,45.7
2018-10-18T13:31:34.499Z,45.7
2018-10-18T13:32:34.623Z,45.7
2018-10-18T13:33:35.552Z,45.8
2018-10-18T13:34:33.458Z,45.7
2018-10-18T13:35:33.938Z,45.7
2018-10-18T13:36:35.596Z,45.7
2018-10-18T13:37:40.761Z,45.7
2018-10-18T13:38:41.139Z,45.7
2018-10-18T13:39:39.598Z,45.7
2018-10-18T13:40:37.953Z,45.7
2018-10-18T13:41:35.800Z,45.7
2018-10-18T13:42:35.584Z,45.7
2018-10-18T13:43:33.581Z,45.8
2018-10-18T13:44:36.321Z,46
2018-10-18T13:45:36.813Z,46
2018-10-18T13:46:40.811Z,46.1
2018-10-18T13:47:41.359Z,46.1
2018-10-18T13:48:40.109Z,46.1
2018-10-18T13:49:40.340Z,46.2